createdAt,value
2023-02-06T00:00:56.734Z,-2.18
2023-02-06T00:03:24.213Z,-2.21
2023-02-06T00:05:57.675Z,-2.39
2023-02-06T00:08:25.655Z,-2.45
2023-02-06T00:10:53.223Z,-2.64
2023-02-06T00:13:21.421Z,-2.52
2023-02-06T00:15:49.006Z,-2.55
2023-02-06T00:18:16.490Z,-2.35
2023-02-06T00:20:43.978Z,-2.46
2023-02-06T00:23:12.775Z,-2.45
2023-02-06T00:25:40.236Z,-2.51
2023-02-06T00:28:07.984Z,-2.51
2023-02-06T00:30:35.637Z,-2.35
2023-02-06T00:33:03.154Z,-2.31
2023-02-06T00:35:30.676Z,-2.33
2023-02-06T00:37:59.729Z,-2.31
2023-02-06T00:40:28.575Z,-2.59
2023-02-06T00:42:56.029Z,-2.45
2023-02-06T00:45:23.519Z,-2.54
2023-02-06T00:47:51.050Z,-2.97
2023-02-06T00:50:18.907Z,-2.52
2023-02-06T00:52:46.916Z,-2.42
2023-02-06T00:55:14.817Z,-2.36
2023-02-06T00:57:44.052Z,-2.42
2023-02-06T01:00:12.682Z,-2.33
2023-02-06T01:02:40.231Z,-2.39
2023-02-06T01:05:08.403Z,-2.61
2023-02-06T01:07:38.137Z,-2.69
2023-02-06T01:10:06.541Z,-2.56
2023-02-06T01:12:34.714Z,-2.60
2023-02-06T01:15:03.686Z,-2.53
2023-02-06T01:17:32.832Z,-2.32
2023-02-06T01:20:00.491Z,-2.27
2023-02-06T01:22:28.203Z,-2.24
2023-02-06T01:24:55.724Z,-2.33
2023-02-06T01:27:23.263Z,-2.33
2023-02-06T01:29:50.788Z,-2.54
2023-02-06T01:32:19.694Z,-2.47
2023-02-06T01:34:47.256Z,-2.12
2023-02-06T01:37:14.783Z,-2.00
2023-02-06T01:39:42.243Z,-2.24
2023-02-06T01:42:13.372Z,-2.46
2023-02-06T01:44:41.224Z,-2.56
2023-02-06T01:47:11.458Z,-2.52
2023-02-06T01:49:44.474Z,-2.55
2023-02-06T01:52:18.358Z,-2.58
2023-02-06T01:54:49.240Z,-2.59
2023-02-06T01:57:19.107Z,-2.65
2023-02-06T01:59:51.946Z,-2.81
2023-02-06T02:02:19.741Z,-2.82
2023-02-06T02:04:49.237Z,-2.90
2023-02-06T02:07:21.816Z,-2.88
2023-02-06T02:09:49.374Z,-2.99
2023-02-06T02:12:17.645Z,-2.95
2023-02-06T02:14:47.848Z,-2.86
2023-02-06T02:17:27.553Z,-2.80
2023-02-06T02:20:27.173Z,-2.74
2023-02-06T02:23:21.689Z,-2.81
2023-02-06T02:26:09.802Z,-2.90
2023-02-06T02:29:05.144Z,-3.14
2023-02-06T02:31:53.914Z,-3.06
2023-02-06T02:34:53.878Z,-3.29
2023-02-06T02:37:32.259Z,-3.28
2023-02-06T02:40:08.049Z,-3.17
2023-02-06T02:42:42.533Z,-2.77
2023-02-06T02:45:16.277Z,-2.78
2023-02-06T02:47:50.540Z,-2.57
2023-02-06T02:50:20.576Z,-2.50
2023-02-06T02:52:48.044Z,-2.44
2023-02-06T02:55:17.958Z,-2.36
2023-02-06T02:57:50.507Z,-2.25
2023-02-06T03:00:19.759Z,-2.25
2023-02-06T03:02:50.028Z,-2.26
2023-02-06T03:05:23.059Z,-2.51
2023-02-06T03:08:02.599Z,-2.31
2023-02-06T03:10:36.000Z,-2.17
2023-02-06T03:13:08.998Z,-2.14
2023-02-06T03:15:42.562Z,-2.17
2023-02-06T03:18:14.248Z,-2.05
2023-02-06T03:20:45.915Z,-1.98
2023-02-06T03:23:21.345Z,-1.85
2023-02-06T03:25:52.023Z,-1.95
2023-02-06T03:28:26.322Z,-2.15
2023-02-06T03:30:57.689Z,-2.22
2023-02-06T03:33:29.561Z,-2.34
2023-02-06T03:35:58.902Z,-2.51
2023-02-06T03:38:28.561Z,-2.63
2023-02-06T03:40:58.658Z,-2.63
2023-02-06T03:43:29.058Z,-2.61
2023-02-06T03:46:01.090Z,-2.70
2023-02-06T03:48:33.544Z,-2.83
2023-02-06T03:51:07.826Z,-2.94
2023-02-06T03:53:37.911Z,-2.90
2023-02-06T03:56:11.656Z,-3.05
2023-02-06T03:58:39.360Z,-3.31
2023-02-06T04:01:08.174Z,-3.23
2023-02-06T04:03:36.290Z,-3.00
2023-02-06T04:06:05.181Z,-3.07
2023-02-06T04:08:32.650Z,-3.33
2023-02-06T04:11:00.118Z,-3.70
2023-02-06T04:13:27.593Z,-3.70
2023-02-06T04:15:56.190Z,-3.48
2023-02-06T04:18:24.449Z,-3.32
2023-02-06T04:20:52.386Z,-3.27
2023-02-06T04:23:21.536Z,-3.17
2023-02-06T04:25:49.148Z,-3.18
2023-02-06T04:28:16.655Z,-3.24
2023-02-06T04:30:44.209Z,-3.19
2023-02-06T04:33:11.763Z,-3.24
2023-02-06T04:35:39.351Z,-3.37
2023-02-06T04:38:06.820Z,-3.89
2023-02-06T04:40:35.631Z,-3.88
2023-02-06T04:43:03.087Z,-3.46
2023-02-06T04:45:30.558Z,-3.30
2023-02-06T04:47:59.548Z,-3.23
2023-02-06T04:50:29.258Z,-3.32
2023-02-06T04:52:56.773Z,-3.63
2023-02-06T04:55:24.250Z,-3.60
2023-02-06T04:57:53.079Z,-3.25
2023-02-06T05:00:20.658Z,-3.02
2023-02-06T05:02:48.160Z,-2.93
2023-02-06T05:05:15.754Z,-3.15
2023-02-06T05:07:43.233Z,-3.51
2023-02-06T05:10:11.349Z,-3.46
2023-02-06T05:12:38.858Z,-3.44
2023-02-06T05:15:09.052Z,-3.37
2023-02-06T05:17:37.141Z,-3.31
2023-02-06T05:20:05.409Z,-3.28
2023-02-06T05:22:32.940Z,-3.24
2023-02-06T05:25:00.527Z,-3.28
2023-02-06T05:27:28.083Z,-3.33
2023-02-06T05:29:55.525Z,-3.45
2023-02-06T05:32:24.336Z,-3.31
2023-02-06T05:34:51.796Z,-3.25
2023-02-06T05:37:19.255Z,-3.20
2023-02-06T05:39:46.736Z,-3.25
2023-02-06T05:42:14.213Z,-3.13
2023-02-06T05:44:41.685Z,-2.98
2023-02-06T05:47:09.195Z,-2.95
2023-02-06T05:49:38.025Z,-3.10
2023-02-06T05:52:05.889Z,-3.16
2023-02-06T05:54:33.359Z,-3.21
2023-02-06T05:57:00.819Z,-3.30
2023-02-06T05:59:28.323Z,-3.27
2023-02-06T06:01:55.952Z,-3.28
2023-02-06T06:04:23.421Z,-3.38
2023-02-06T06:06:52.313Z,-3.43
2023-02-06T06:09:19.788Z,-3.21
2023-02-06T06:11:47.690Z,-3.08
2023-02-06T06:14:15.200Z,-3.19
2023-02-06T06:16:42.674Z,-3.08
2023-02-06T06:19:10.746Z,-3.75
2023-02-06T06:21:38.315Z,-3.25
2023-02-06T06:24:07.647Z,-3.12
2023-02-06T06:26:35.215Z,-3.32
2023-02-06T06:29:02.670Z,-3.24
2023-02-06T06:31:30.276Z,-3.22
2023-02-06T06:33:57.778Z,-3.11
2023-02-06T06:36:25.239Z,-2.94
2023-02-06T06:38:52.890Z,-2.87
2023-02-06T06:41:21.795Z,-2.83
2023-02-06T06:43:51.472Z,-2.91
2023-02-06T06:46:19.218Z,-2.76
2023-02-06T06:48:46.694Z,-2.72
2023-02-06T06:51:14.170Z,-2.69
2023-02-06T06:53:41.677Z,-2.79
2023-02-06T06:56:13.294Z,-2.71
2023-02-06T06:58:42.619Z,-2.78
2023-02-06T07:01:10.369Z,-2.69
2023-02-06T07:03:37.940Z,-2.97
2023-02-06T07:06:06.444Z,-2.87
2023-02-06T07:08:34.309Z,-2.50
2023-02-06T07:11:01.793Z,-2.15
2023-02-06T07:13:29.266Z,-2.08
2023-02-06T07:15:58.100Z,-2.23
2023-02-06T07:18:25.557Z,-2.19
2023-02-06T07:20:53.067Z,-2.48
2023-02-06T07:23:20.566Z,-2.36
2023-02-06T07:25:48.149Z,-2.17
2023-02-06T07:28:15.773Z,-1.52
2023-02-06T07:30:43.333Z,-1.25
2023-02-06T07:33:12.184Z,-1.04
2023-02-06T07:35:39.642Z,-1.27
2023-02-06T07:38:07.113Z,-1.51
2023-02-06T07:40:44.633Z,-1.11
2023-02-06T07:43:13.114Z,-0.44
2023-02-06T07:45:40.691Z,0.11
2023-02-06T07:48:08.817Z,-0.26
2023-02-06T07:50:37.679Z,0.08
2023-02-06T07:53:05.162Z,0.06
2023-02-06T07:55:32.615Z,-0.65
2023-02-06T07:58:00.118Z,-0.38
2023-02-06T08:00:27.573Z,0.17
2023-02-06T08:02:55.038Z,0.23
2023-02-06T08:05:22.505Z,0.64
2023-02-06T08:07:52.635Z,1.15
2023-02-06T08:10:20.343Z,1.76
2023-02-06T08:12:47.822Z,1.98
2023-02-06T08:15:15.784Z,2.61
2023-02-06T08:17:43.564Z,2.93
2023-02-06T08:20:12.258Z,2.55
2023-02-06T08:22:40.091Z,2.91
2023-02-06T08:25:09.745Z,2.19
2023-02-06T08:27:37.235Z,2.73
2023-02-06T08:30:05.661Z,3.02
2023-02-06T08:32:34.637Z,2.83
2023-02-06T08:35:02.218Z,2.35
2023-02-06T08:37:29.699Z,2.47
2023-02-06T08:39:57.166Z,2.17
2023-02-06T08:42:26.083Z,1.53
2023-02-06T08:44:54.105Z,1.73
2023-02-06T08:47:21.573Z,1.66
2023-02-06T08:49:50.465Z,2.15
2023-02-06T08:52:18.452Z,2.75
2023-02-06T08:54:45.913Z,2.84
2023-02-06T08:57:13.546Z,3.23
2023-02-06T08:59:42.372Z,3.53
2023-02-06T09:02:11.267Z,3.80
2023-02-06T09:04:39.050Z,3.94
2023-02-06T09:07:06.673Z,4.02
2023-02-06T09:09:34.175Z,3.85
2023-02-06T09:12:03.766Z,3.92
2023-02-06T09:14:32.008Z,4.01
2023-02-06T09:17:00.830Z,4.22
2023-02-06T09:19:28.301Z,4.38
2023-02-06T09:21:56.028Z,4.48
2023-02-06T09:24:23.768Z,4.49
2023-02-06T09:26:59.472Z,4.56
2023-02-06T09:29:31.368Z,4.52
2023-02-06T09:31:59.450Z,4.48
2023-02-06T09:34:28.543Z,4.55
2023-02-06T09:36:56.727Z,4.33
2023-02-06T09:39:25.132Z,4.49
2023-02-06T09:41:54.553Z,4.70
2023-02-06T09:44:25.400Z,4.73
2023-02-06T09:46:58.382Z,4.53
2023-02-06T09:49:39.022Z,4.12
2023-02-06T09:52:31.554Z,4.15
2023-02-06T09:55:07.444Z,4.40
2023-02-06T09:57:42.571Z,4.60
2023-02-06T10:00:26.773Z,4.65
2023-02-06T10:03:08.696Z,1.94
2023-02-06T10:05:48.221Z,0.75
2023-02-06T10:08:23.200Z,0.22
2023-02-06T10:10:54.151Z,1.25
2023-02-06T10:13:27.216Z,1.88
2023-02-06T10:15:58.694Z,1.45
2023-02-06T10:18:33.242Z,1.66
2023-02-06T10:21:07.648Z,1.61
2023-02-06T10:23:41.577Z,3.32
2023-02-06T10:26:17.144Z,3.47
2023-02-06T10:28:46.178Z,4.01
2023-02-06T10:31:36.037Z,3.42
2023-02-06T10:34:31.924Z,3.53
2023-02-06T10:37:15.294Z,2.90
2023-02-06T10:39:58.764Z,3.22
2023-02-06T10:42:37.664Z,2.54
2023-02-06T10:45:20.235Z,2.05
2023-02-06T10:47:54.520Z,1.48
2023-02-06T10:50:28.680Z,1.40
2023-02-06T10:53:04.930Z,2.06
2023-02-06T10:55:43.923Z,2.63
2023-02-06T10:58:17.112Z,2.99
2023-02-06T11:00:46.422Z,2.97
2023-02-06T11:03:16.569Z,4.58
2023-02-06T11:05:44.058Z,5.98
2023-02-06T11:08:21.438Z,6.42
2023-02-06T11:10:49.377Z,5.39
2023-02-06T11:13:25.013Z,7.03
2023-02-06T11:15:58.705Z,7.39
2023-02-06T11:18:31.351Z,8.01
2023-02-06T11:20:59.036Z,8.74
2023-02-06T11:23:29.278Z,8.52
2023-02-06T11:26:05.614Z,7.09
2023-02-06T11:28:34.974Z,6.65
2023-02-06T11:31:05.092Z,6.41
2023-02-06T11:33:41.830Z,5.94
2023-02-06T11:36:24.982Z,5.77
2023-02-06T11:38:58.769Z,6.29
2023-02-06T11:41:26.666Z,6.61
2023-02-06T11:44:01.528Z,6.26
2023-02-06T11:46:32.330Z,6.16
2023-02-06T11:49:08.914Z,6.23
2023-02-06T11:51:48.273Z,5.93
2023-02-06T11:54:23.549Z,5.49
2023-02-06T11:57:04.184Z,4.76
2023-02-06T11:59:34.774Z,4.78
2023-02-06T12:02:05.680Z,4.98
2023-02-06T12:04:37.473Z,5.30
2023-02-06T12:07:17.377Z,5.29
2023-02-06T12:09:46.224Z,5.69
2023-02-06T12:12:23.777Z,5.84
2023-02-06T12:14:55.217Z,5.77
2023-02-06T12:17:29.500Z,5.23
2023-02-06T12:20:02.610Z,5.35
2023-02-06T12:22:35.980Z,5.73
2023-02-06T12:25:06.068Z,5.77
2023-02-06T12:27:39.408Z,5.91
2023-02-06T12:30:23.250Z,6.15
2023-02-06T12:32:57.945Z,6.15
2023-02-06T12:35:35.759Z,6.09
2023-02-06T12:38:11.038Z,6.46
2023-02-06T12:40:46.742Z,6.82
2023-02-06T12:43:16.180Z,6.46
2023-02-06T12:45:51.081Z,6.26
2023-02-06T12:48:22.829Z,5.99
2023-02-06T12:51:05.416Z,6.13
2023-02-06T12:53:37.650Z,5.76
2023-02-06T12:56:21.144Z,5.49
2023-02-06T12:58:57.280Z,5.05
2023-02-06T13:01:38.865Z,5.09
2023-02-06T13:04:12.278Z,5.19
2023-02-06T13:06:47.435Z,4.90
2023-02-06T13:09:20.912Z,5.06
2023-02-06T13:11:49.812Z,4.86
2023-02-06T13:14:21.040Z,4.62
2023-02-06T13:16:54.854Z,4.73
2023-02-06T13:19:26.654Z,4.76
2023-02-06T13:22:16.697Z,4.70
2023-02-06T13:24:47.112Z,4.28
2023-02-06T13:27:16.295Z,4.02
2023-02-06T13:29:45.810Z,3.97
2023-02-06T13:32:42.989Z,4.31
2023-02-06T13:35:28.927Z,4.72
2023-02-06T13:38:27.856Z,4.76
2023-02-06T13:41:32.070Z,4.79
2023-02-06T13:44:05.204Z,4.82
2023-02-06T13:46:51.878Z,4.87
2023-02-06T13:49:39.339Z,5.13
2023-02-06T13:52:15.876Z,5.23
2023-02-06T13:54:56.577Z,5.33
2023-02-06T13:57:45.259Z,5.29
2023-02-06T14:00:16.394Z,5.01
2023-02-06T14:02:48.385Z,4.97
2023-02-06T14:05:19.799Z,4.67
2023-02-06T14:08:04.249Z,4.82
2023-02-06T14:10:45.053Z,5.00
2023-02-06T14:13:36.963Z,5.22
2023-02-06T14:16:19.160Z,5.20
2023-02-06T14:18:51.836Z,5.13
2023-02-06T14:21:32.677Z,5.24
2023-02-06T14:24:15.742Z,5.04
2023-02-06T14:26:53.354Z,4.77
2023-02-06T14:29:35.981Z,5.03
2023-02-06T14:32:23.294Z,5.14
2023-02-06T14:35:07.018Z,5.14
2023-02-06T14:37:46.714Z,5.02
2023-02-06T14:40:22.301Z,5.11
2023-02-06T14:42:51.486Z,4.96
2023-02-06T14:45:33.755Z,4.03
2023-02-06T14:48:15.478Z,4.47
2023-02-06T14:50:49.595Z,4.22
2023-02-06T14:53:22.775Z,3.85
2023-02-06T14:55:50.366Z,4.25
2023-02-06T14:58:25.969Z,4.45
2023-02-06T15:00:55.909Z,4.69
2023-02-06T15:03:28.166Z,4.98
2023-02-06T15:06:04.093Z,5.23
2023-02-06T15:08:33.338Z,5.22
2023-02-06T15:11:03.292Z,5.10
2023-02-06T15:13:35.601Z,5.13
2023-02-06T15:16:06.852Z,5.10
2023-02-06T15:18:35.506Z,4.91
2023-02-06T15:21:05.179Z,4.77
2023-02-06T15:23:50.140Z,4.84
2023-02-06T15:26:28.208Z,4.95
2023-02-06T15:28:58.013Z,4.80
2023-02-06T15:31:28.648Z,4.72
2023-02-06T15:33:59.188Z,4.75
2023-02-06T15:36:32.202Z,4.81
2023-02-06T15:39:00.387Z,4.74
2023-02-06T15:41:30.863Z,4.67
2023-02-06T15:44:02.321Z,4.60
2023-02-06T15:46:32.041Z,4.43
2023-02-06T15:48:59.903Z,4.20
2023-02-06T15:51:29.399Z,3.52
2023-02-06T15:54:08.362Z,3.38
2023-02-06T15:56:38.415Z,2.54
2023-02-06T15:59:14.036Z,2.10
2023-02-06T16:01:44.512Z,1.63
2023-02-06T16:04:16.701Z,1.65
2023-02-06T16:06:44.500Z,1.21
2023-02-06T16:09:21.884Z,0.87
2023-02-06T16:11:53.638Z,1.26
2023-02-06T16:14:26.042Z,1.23
2023-02-06T16:17:01.152Z,0.93
2023-02-06T16:19:40.374Z,1.15
2023-02-06T16:22:17.230Z,1.71
2023-02-06T16:24:44.890Z,1.86
2023-02-06T16:27:19.241Z,1.05
2023-02-06T16:29:50.834Z,1.09
2023-02-06T16:32:23.742Z,1.12
2023-02-06T16:34:51.689Z,1.02
2023-02-06T16:37:21.507Z,1.60
2023-02-06T16:39:49.535Z,1.21
2023-02-06T16:42:19.097Z,0.72
2023-02-06T16:44:50.105Z,1.01
2023-02-06T16:47:21.279Z,0.92
2023-02-06T16:49:49.562Z,0.87
2023-02-06T16:52:20.209Z,0.76
2023-02-06T16:54:48.445Z,0.66
2023-02-06T16:57:25.093Z,0.16
2023-02-06T16:59:52.601Z,0.53
2023-02-06T17:02:21.648Z,0.42
2023-02-06T17:04:49.220Z,0.59
2023-02-06T17:07:18.646Z,0.41
2023-02-06T17:09:48.651Z,0.42
2023-02-06T17:12:18.618Z,0.48
2023-02-06T17:14:46.351Z,0.34
2023-02-06T17:17:15.744Z,0.19
2023-02-06T17:19:44.638Z,0.23
2023-02-06T17:22:12.957Z,0.73
2023-02-06T17:24:41.356Z,0.44
2023-02-06T17:27:13.650Z,0.40
2023-02-06T17:29:41.215Z,0.71
2023-02-06T17:32:09.239Z,0.54
2023-02-06T17:34:37.406Z,0.42
2023-02-06T17:37:08.010Z,0.64
2023-02-06T17:39:35.513Z,0.50
2023-02-06T17:42:03.034Z,0.55
2023-02-06T17:44:30.542Z,0.24
2023-02-06T17:46:57.972Z,0.18
2023-02-06T17:49:25.491Z,0.53
2023-02-06T17:51:52.994Z,0.28
2023-02-06T17:54:21.851Z,0.18
2023-02-06T17:56:49.310Z,0.07
2023-02-06T17:59:16.989Z,0.15
2023-02-06T18:01:44.500Z,0.38
2023-02-06T18:04:12.668Z,0.49
2023-02-06T18:06:40.405Z,0.41
2023-02-06T18:09:07.868Z,0.34
2023-02-06T18:11:36.677Z,0.38
2023-02-06T18:14:04.251Z,0.60
2023-02-06T18:16:32.902Z,1.08
2023-02-06T18:19:00.835Z,0.58
2023-02-06T18:21:29.345Z,0.78
2023-02-06T18:23:57.097Z,0.84
2023-02-06T18:26:24.656Z,0.59
2023-02-06T18:28:53.589Z,0.30
2023-02-06T18:31:25.134Z,0.34
2023-02-06T18:33:52.994Z,0.08
2023-02-06T18:36:20.815Z,-0.24
2023-02-06T18:38:48.341Z,-0.28
2023-02-06T18:41:34.745Z,-0.50
2023-02-06T18:44:05.640Z,-0.23
2023-02-06T18:46:33.395Z,-0.33
2023-02-06T18:49:01.078Z,-0.14
2023-02-06T18:51:29.048Z,-0.08
2023-02-06T18:53:56.514Z,-0.47
2023-02-06T18:56:24.061Z,-0.78
2023-02-06T18:58:51.605Z,-1.07
2023-02-06T19:01:23.124Z,-1.36
2023-02-06T19:03:51.999Z,-1.17
2023-02-06T19:06:21.868Z,-1.09
2023-02-06T19:08:49.331Z,-0.95
2023-02-06T19:11:16.992Z,-0.93
2023-02-06T19:13:44.609Z,-1.23
2023-02-06T19:16:14.856Z,-1.14
2023-02-06T19:18:46.116Z,-0.99
2023-02-06T19:21:16.595Z,-1.23
2023-02-06T19:23:44.472Z,-1.31
2023-02-06T19:26:14.445Z,-1.41
2023-02-06T19:28:43.552Z,-1.44
2023-02-06T19:31:13.300Z,-1.17
2023-02-06T19:33:43.010Z,-1.16
2023-02-06T19:36:12.614Z,-1.18
2023-02-06T19:38:41.246Z,-0.81
2023-02-06T19:41:10.145Z,-0.63
2023-02-06T19:43:38.075Z,-0.97
2023-02-06T19:46:06.336Z,-0.87
2023-02-06T19:48:33.924Z,-1.22
2023-02-06T19:51:08.426Z,-1.29
2023-02-06T19:53:36.645Z,-1.13
2023-02-06T19:56:05.564Z,-1.74
2023-02-06T19:58:33.298Z,-1.64
2023-02-06T20:01:08.336Z,-1.46
2023-02-06T20:03:35.914Z,-1.75
2023-02-06T20:06:03.571Z,-1.90
2023-02-06T20:08:32.695Z,-2.07
2023-02-06T20:11:06.502Z,-2.11
2023-02-06T20:13:34.550Z,-2.02
2023-02-06T20:16:03.565Z,-1.94
2023-02-06T20:18:31.432Z,-1.59
2023-02-06T20:20:59.062Z,-1.72
2023-02-06T20:23:27.080Z,-1.55
2023-02-06T20:25:56.156Z,-1.45
2023-02-06T20:28:24.722Z,-1.68
2023-02-06T20:30:52.330Z,-1.69
2023-02-06T20:33:19.894Z,-1.92
2023-02-06T20:35:47.351Z,-1.94
2023-02-06T20:38:14.828Z,-1.80
2023-02-06T20:40:49.864Z,-1.76
2023-02-06T20:43:18.650Z,-1.58
2023-02-06T20:45:46.121Z,-1.36
2023-02-06T20:48:13.610Z,-1.08
2023-02-06T20:50:41.060Z,-1.03
2023-02-06T20:53:08.621Z,-1.22
2023-02-06T20:55:36.283Z,-1.37
2023-02-06T20:58:04.262Z,-1.82
2023-02-06T21:00:33.053Z,-1.57
2023-02-06T21:03:00.553Z,-1.88
2023-02-06T21:05:28.337Z,-1.81
2023-02-06T21:07:57.559Z,-1.73
2023-02-06T21:10:25.598Z,-1.77
2023-02-06T21:12:53.077Z,-1.86
2023-02-06T21:15:20.888Z,-1.91
2023-02-06T21:17:49.710Z,-2.06
2023-02-06T21:20:17.458Z,-2.21
2023-02-06T21:22:44.931Z,-2.33
2023-02-06T21:25:13.043Z,-2.55
2023-02-06T21:27:40.519Z,-2.65
2023-02-06T21:30:09.075Z,-2.67
2023-02-06T21:32:36.569Z,-2.63
2023-02-06T21:35:08.656Z,-2.77
2023-02-06T21:37:36.120Z,-2.84
2023-02-06T21:40:03.930Z,-2.83
2023-02-06T21:42:31.375Z,-2.78
2023-02-06T21:44:58.842Z,-2.68
2023-02-06T21:47:26.395Z,-2.71
2023-02-06T21:49:53.841Z,-2.99
2023-02-06T21:52:22.750Z,-3.13
2023-02-06T21:54:50.247Z,-3.16
2023-02-06T21:57:17.738Z,-3.17
2023-02-06T21:59:45.737Z,-3.05
2023-02-06T22:02:13.423Z,-2.97
2023-02-06T22:04:40.888Z,-2.96
2023-02-06T22:07:11.475Z,-3.09
2023-02-06T22:09:40.284Z,-3.19
2023-02-06T22:12:07.971Z,-3.16
2023-02-06T22:14:36.141Z,-3.49
2023-02-06T22:17:03.631Z,-3.99
2023-02-06T22:19:31.342Z,-4.44
2023-02-06T22:21:58.829Z,-4.40
2023-02-06T22:24:26.295Z,-4.22
2023-02-06T22:26:55.088Z,-4.03
2023-02-06T22:29:22.552Z,-3.94
2023-02-06T22:31:50.033Z,-3.74
2023-02-06T22:34:19.531Z,-3.63
2023-02-06T22:36:47.800Z,-3.50
2023-02-06T22:39:16.126Z,-3.45
2023-02-06T22:41:45.506Z,-3.26
2023-02-06T22:44:17.100Z,-2.92
2023-02-06T22:46:46.145Z,-2.45
2023-02-06T22:49:22.371Z,-2.35
2023-02-06T22:51:49.817Z,-2.13
2023-02-06T22:54:17.390Z,-1.99
2023-02-06T22:56:45.585Z,-1.99
2023-02-06T22:59:17.675Z,-2.15
2023-02-06T23:01:47.553Z,-3.03
2023-02-06T23:04:17.190Z,-2.88
2023-02-06T23:06:45.490Z,-2.52
2023-02-06T23:09:16.710Z,-2.57
2023-02-06T23:11:44.419Z,-2.48
2023-02-06T23:14:14.508Z,-3.18
2023-02-06T23:16:42.778Z,-3.89
2023-02-06T23:19:12.070Z,-4.32
2023-02-06T23:21:41.293Z,-4.16
2023-02-06T23:24:10.731Z,-4.29
2023-02-06T23:26:38.313Z,-4.23
2023-02-06T23:29:10.809Z,-4.30
2023-02-06T23:31:39.932Z,-4.32
2023-02-06T23:34:07.460Z,-4.38
2023-02-06T23:36:35.227Z,-4.24
2023-02-06T23:39:03.734Z,-4.37
2023-02-06T23:41:31.238Z,-4.44
2023-02-06T23:44:00.964Z,-4.69
2023-02-06T23:46:31.186Z,-4.49
2023-02-06T23:49:00.030Z,-4.42
2023-02-06T23:51:27.973Z,-4.59
2023-02-06T23:53:55.490Z,-4.59
2023-02-06T23:56:24.822Z,-4.82
2023-02-06T23:58:53.914Z,-4.37
